Time;durP1;ratioP1;P1;durP2;ratioP2;P2;SDS_P1;SDS_P2;PMS_P1;PMS_P2;Temp;Humidity;BMP_temperature;BMP_pressure;BME280_temperature;BME280_humidity;BME280_pressure;Samples;Min_cycle;Max_cycle;Signal;HPM_P1;HPM_P2
2024/01/21 00:01:14;;;;;;;14.43;7.07;;;;;;;-2.42;85.82;102397.84;5056624;28;20040;-84
2024/01/21 00:03:40;;;;;;;13.40;6.93;;;;;;;-2.44;85.90;102393.41;5056769;28;20078;-84
2024/01/21 00:06:05;;;;;;;14.45;7.40;;;;;;;-2.54;86.72;102376.41;5087147;28;20048;-84
2024/01/21 00:08:31;;;;;;;13.32;6.72;;;;;;;-2.48;86.62;102388.84;5056535;28;20040;-84
2024/01/21 00:10:57;;;;;;;11.48;6.75;;;;;;;-2.53;84.96;102379.91;5074824;28;20024;-84
2024/01/21 00:13:22;;;;;;;10.73;6.18;;;;;;;-2.55;85.32;102365.94;5074345;28;20497;-84
2024/01/21 00:15:48;;;;;;;11.55;6.85;;;;;;;-2.60;86.02;102370.88;5074211;28;20043;-84
2024/01/21 00:18:13;;;;;;;13.02;7.35;;;;;;;-2.62;86.21;102375.09;5084977;28;20050;-84
2024/01/21 00:20:39;;;;;;;10.55;6.63;;;;;;;-2.71;86.19;102362.50;5062240;28;20039;-84
2024/01/21 00:23:04;;;;;;;11.80;6.97;;;;;;;-2.67;85.30;102372.25;5051471;28;20460;-84
2024/01/21 00:25:30;;;;;;;10.88;6.05;;;;;;;-2.68;84.60;102373.03;5050464;28;20027;-84
2024/01/21 00:27:55;;;;;;;12.50;6.78;;;;;;;-2.69;85.22;102370.38;5059299;28;20453;-84
2024/01/21 00:30:21;;;;;;;11.35;6.47;;;;;;;-2.72;84.72;102360.72;5093088;28;20040;-84
2024/01/21 00:32:46;;;;;;;13.73;7.13;;;;;;;-2.74;84.85;102361.44;5071119;28;20035;-84
2024/01/21 00:35:12;;;;;;;11.52;6.15;;;;;;;-2.80;85.47;102349.00;5066390;28;20028;-84
2024/01/21 00:37:38;;;;;;;13.05;6.40;;;;;;;-2.82;84.68;102341.16;5057122;28;20090;-84
2024/01/21 00:40:05;;;;;;;10.75;6.78;;;;;;;-2.92;85.76;102338.81;5073957;28;20082;-84
2024/01/21 00:42:30;;;;;;;11.00;6.60;;;;;;;-2.86;85.83;102349.56;5087176;28;20130;-84
2024/01/21 00:44:56;;;;;;;9.48;5.93;;;;;;;-2.89;84.50;102345.91;5073832;28;20119;-84
2024/01/21 00:47:21;;;;;;;12.27;6.28;;;;;;;-2.89;83.90;102351.09;5051259;28;20048;-84
2024/01/21 00:49:49;;;;;;;11.73;6.22;;;;;;;-2.95;83.81;102354.22;5054618;28;20064;-84
2024/01/21 00:52:15;;;;;;;9.20;5.82;;;;;;;-2.98;84.31;102355.75;5066291;28;20067;-84
2024/01/21 00:54:40;;;;;;;13.27;6.35;;;;;;;-2.99;84.68;102360.03;5061562;28;20028;-84
2024/01/21 00:57:06;;;;;;;12.00;5.47;;;;;;;-3.03;84.88;102352.88;5067214;28;20563;-84
2024/01/21 00:59:31;;;;;;;10.40;5.55;;;;;;;-3.10;85.33;102332.59;5073440;28;20029;-84
2024/01/21 01:01:57;;;;;;;12.30;5.95;;;;;;;-3.07;85.86;102332.78;5061865;28;20118;-84
2024/01/21 01:04:22;;;;;;;9.32;5.45;;;;;;;-3.03;85.33;102332.16;5075544;28;20042;-84
2024/01/21 01:06:48;;;;;;;13.90;5.68;;;;;;;-3.04;84.61;102320.00;5078909;28;20480;-84
2024/01/21 01:09:13;;;;;;;10.32;5.50;;;;;;;-3.03;84.78;102319.19;5067062;28;20059;-84
2024/01/21 01:11:39;;;;;;;9.90;5.15;;;;;;;-3.03;84.59;102322.66;5081110;28;20090;-84
2024/01/21 01:14:04;;;;;;;11.20;5.38;;;;;;;-3.10;84.29;102311.88;5087422;28;20032;-84
2024/01/21 01:16:30;;;;;;;9.45;5.75;;;;;;;-3.12;83.68;102306.59;5065302;28;20130;-84
2024/01/21 01:18:55;;;;;;;9.45;6.03;;;;;;;-3.12;83.74;102295.34;5055274;28;20044;-84
2024/01/21 01:21:21;;;;;;;8.68;5.03;;;;;;;-3.15;84.51;102290.00;5046638;28;20060;-84
2024/01/21 01:23:46;;;;;;;8.63;4.88;;;;;;;-3.14;84.02;102277.13;5061169;28;20429;-84
2024/01/21 01:26:12;;;;;;;9.55;5.10;;;;;;;-3.14;83.54;102279.72;5040807;28;20060;-84
2024/01/21 01:28:37;;;;;;;8.88;5.40;;;;;;;-3.19;83.89;102263.03;5046807;28;20052;-84
2024/01/21 01:31:03;;;;;;;10.98;5.40;;;;;;;-3.21;83.30;102263.72;5049402;28;20124;-84
2024/01/21 01:33:28;;;;;;;9.48;5.38;;;;;;;-3.21;83.61;102263.72;5047866;28;20040;-84
2024/01/21 01:35:54;;;;;;;14.40;5.47;;;;;;;-3.19;82.76;102256.91;5056498;28;20151;-83
2024/01/21 01:38:19;;;;;;;7.97;5.10;;;;;;;-3.23;82.45;102250.69;5054767;28;20051;-83
2024/01/21 01:40:45;;;;;;;8.60;5.03;;;;;;;-3.22;82.93;102247.28;5054359;28;21016;-83
2024/01/21 01:43:10;;;;;;;11.65;5.53;;;;;;;-3.22;82.63;102234.31;5060804;28;20090;-84
2024/01/21 01:45:36;;;;;;;8.77;4.90;;;;;;;-3.25;82.22;102227.28;5057670;28;20051;-84
2024/01/21 01:48:03;;;;;;;9.38;4.70;;;;;;;-3.21;83.87;102228.34;5072728;28;20382;-83
2024/01/21 01:50:29;;;;;;;8.57;4.93;;;;;;;-3.24;82.52;102220.38;5064634;28;20067;-84
2024/01/21 01:52:55;;;;;;;8.45;4.80;;;;;;;-3.19;82.63;102220.66;5068430;28;20067;-84
2024/01/21 01:55:21;;;;;;;7.63;4.45;;;;;;;-3.18;82.74;102212.97;5042427;28;20028;-84
2024/01/21 01:57:47;;;;;;;8.50;5.05;;;;;;;-3.19;81.07;102212.88;5051536;28;20391;-83
2024/01/21 02:00:14;;;;;;;9.80;4.38;;;;;;;-3.16;82.39;102213.06;5072217;28;20040;-84
2024/01/21 02:02:42;;;;;;;8.18;4.88;;;;;;;-3.17;80.98;102206.97;5066347;28;20039;-83
2024/01/21 02:05:08;;;;;;;8.73;4.95;;;;;;;-3.15;82.32;102204.47;5057038;28;20040;-84
2024/01/21 02:07:34;;;;;;;10.15;4.85;;;;;;;-3.16;81.27;102194.94;5054275;28;20387;-84
2024/01/21 02:10:01;;;;;;;8.05;4.82;;;;;;;-3.14;81.12;102196.81;5043309;28;20044;-83
2024/01/21 02:12:27;;;;;;;7.85;4.65;;;;;;;-3.11;80.64;102191.78;5086141;28;20028;-83
2024/01/21 02:14:53;;;;;;;13.52;5.10;;;;;;;-3.11;79.75;102184.00;5037577;28;20432;-83
2024/01/21 02:17:18;;;;;;;7.95;4.85;;;;;;;-3.09;81.15;102179.81;5086240;28;20440;-84
2024/01/21 02:19:44;;;;;;;8.13;4.47;;;;;;;-3.09;79.91;102185.00;5071964;28;20530;-84
2024/01/21 02:22:09;;;;;;;7.95;4.57;;;;;;;-3.06;80.31;102184.28;5060725;28;20037;-84
2024/01/21 02:24:35;;;;;;;7.07;4.25;;;;;;;-3.05;79.56;102179.16;5092250;28;20036;-84
2024/01/21 02:27:00;;;;;;;9.32;4.65;;;;;;;-3.00;80.29;102175.94;5073631;28;20047;-84
2024/01/21 02:29:26;;;;;;;8.20;4.45;;;;;;;-2.98;77.84;102164.84;5054606;28;20354;-83
2024/01/21 02:31:53;;;;;;;14.00;4.80;;;;;;;-2.93;79.31;102157.31;5060284;28;20410;-83
2024/01/21 02:34:19;;;;;;;10.02;5.15;;;;;;;-2.93;77.97;102150.41;5074544;28;20664;-84
2024/01/21 02:36:48;;;;;;;6.90;4.07;;;;;;;-2.86;79.73;102152.53;5069515;28;20125;-83
2024/01/21 02:39:14;;;;;;;6.72;4.28;;;;;;;-2.80;79.18;102133.81;5072495;28;20454;-84
2024/01/21 02:41:39;;;;;;;6.90;4.38;;;;;;;-2.80;79.67;102123.44;5040978;28;20073;-84
2024/01/21 02:44:05;;;;;;;10.27;4.68;;;;;;;-2.75;78.63;102124.56;5056869;28;20028;-84
2024/01/21 02:46:30;;;;;;;8.52;4.05;;;;;;;-2.69;78.37;102132.69;5054353;28;20585;-84
2024/01/21 02:48:56;;;;;;;6.47;4.32;;;;;;;-2.70;78.17;102130.00;5064623;28;20446;-84
2024/01/21 02:51:21;;;;;;;7.53;3.97;;;;;;;-2.62;78.46;102139.09;5077328;28;20038;-84
2024/01/21 02:53:47;;;;;;;8.68;4.38;;;;;;;-2.61;76.85;102139.16;5091753;28;20106;-84
2024/01/21 02:56:23;;;;;;;7.07;4.45;;;;;;;-2.57;78.47;102134.13;5059288;28;20475;-84
2024/01/21 02:58:50;;;;;;;6.22;4.03;;;;;;;-2.56;79.22;102131.63;5065286;28;20430;-84
2024/01/21 03:01:16;;;;;;;9.30;4.32;;;;;;;-2.54;78.86;102130.00;5050802;28;20043;-84
2024/01/21 03:03:42;;;;;;;6.15;3.80;;;;;;;-2.51;77.02;102126.69;5053288;28;20043;-84
2024/01/21 03:06:08;;;;;;;7.40;4.50;;;;;;;-2.53;77.79;102107.56;5065928;28;20028;-84
2024/01/21 03:08:33;;;;;;;7.03;4.18;;;;;;;-2.53;77.72;102111.03;5083020;28;20448;-84
2024/01/21 03:10:59;;;;;;;7.43;4.15;;;;;;;-2.50;77.38;102100.81;5056837;28;20047;-84
2024/01/21 03:13:24;;;;;;;7.13;4.20;;;;;;;-2.49;77.29;102106.91;5053268;28;20139;-84
2024/01/21 03:15:49;;;;;;;6.88;4.15;;;;;;;-2.51;76.26;102098.16;5051957;28;20056;-84
2024/01/21 03:18:15;;;;;;;9.13;4.43;;;;;;;-2.50;78.33;102090.44;5063949;28;20033;-84
2024/01/21 03:20:40;;;;;;;6.07;3.85;;;;;;;-2.50;77.79;102082.66;5070918;28;20391;-84
2024/01/21 03:23:06;;;;;;;9.77;4.68;;;;;;;-2.52;78.82;102078.19;5071167;28;20141;-84
2024/01/21 03:25:31;;;;;;;5.60;3.60;;;;;;;-2.53;77.76;102071.25;5047704;28;20043;-84
2024/01/21 03:27:57;;;;;;;10.00;3.88;;;;;;;-2.50;78.73;102087.84;5077763;28;20429;-84
2024/01/21 03:30:22;;;;;;;6.32;3.85;;;;;;;-2.52;78.57;102086.91;5065207;28;20087;-84
2024/01/21 03:32:48;;;;;;;9.55;3.97;;;;;;;-2.53;78.59;102084.22;5057083;28;20506;-84
2024/01/21 03:35:13;;;;;;;7.72;4.40;;;;;;;-2.50;79.68;102081.78;5063345;28;20028;-84
2024/01/21 03:37:40;;;;;;;7.35;3.97;;;;;;;-2.52;77.90;102076.53;5059069;28;20550;-84
2024/01/21 03:40:06;;;;;;;6.90;3.92;;;;;;;-2.51;77.99;102062.72;5064642;28;20056;-84
2024/01/21 03:42:31;;;;;;;8.75;3.90;;;;;;;-2.51;78.60;102061.84;5070886;28;20136;-84
2024/01/21 03:44:57;;;;;;;10.27;4.32;;;;;;;-2.48;77.50;102064.59;5052878;28;20131;-84
2024/01/21 03:47:22;;;;;;;7.75;4.15;;;;;;;-2.47;79.14;102056.91;5065178;28;20113;-84
2024/01/21 03:49:48;;;;;;;5.85;3.83;;;;;;;-2.44;78.46;102053.56;5072672;28;20028;-84
2024/01/21 03:52:13;;;;;;;4.85;3.33;;;;;;;-2.40;78.59;102064.19;5087333;28;20043;-84
2024/01/21 03:54:39;;;;;;;8.73;4.07;;;;;;;-2.35;78.49;102063.50;5070509;28;20074;-84
2024/01/21 03:57:04;;;;;;;8.98;4.00;;;;;;;-2.33;78.73;102062.75;5075467;28;20107;-84
2024/01/21 03:59:30;;;;;;;7.95;4.03;;;;;;;-2.29;78.06;102049.13;5056147;28;20031;-84
2024/01/21 04:01:55;;;;;;;6.55;3.95;;;;;;;-2.24;78.55;102046.78;5073169;28;20039;-84
2024/01/21 04:04:21;;;;;;;6.25;3.67;;;;;;;-2.21;78.24;102041.72;5060056;28;20062;-84
2024/01/21 04:06:46;;;;;;;7.10;4.03;;;;;;;-2.21;78.42;102029.63;5059706;28;20032;-84
2024/01/21 04:09:12;;;;;;;9.15;3.33;;;;;;;-2.20;78.66;102027.94;5076273;28;20458;-84
2024/01/21 04:11:41;;;;;;;6.55;3.20;;;;;;;-2.17;79.00;102023.78;5059511;28;20452;-84
2024/01/21 04:14:07;;;;;;;7.35;3.88;;;;;;;-2.18;79.23;102019.44;5090252;28;20484;-84
2024/01/21 04:16:32;;;;;;;6.50;3.92;;;;;;;-2.14;78.40;102020.47;5074271;28;20123;-84
2024/01/21 04:18:58;;;;;;;6.72;3.40;;;;;;;-2.14;78.42;102024.75;5058437;28;20041;-84
2024/01/21 04:21:23;;;;;;;5.20;3.25;;;;;;;-2.12;78.93;102023.13;5076202;28;20115;-84
2024/01/21 04:23:49;;;;;;;7.03;3.85;;;;;;;-2.09;78.40;102029.34;5059604;28;20041;-84
2024/01/21 04:26:15;;;;;;;5.55;2.92;;;;;;;-2.03;79.05;102032.25;5055990;28;20036;-84
2024/01/21 04:28:40;;;;;;;7.03;3.60;;;;;;;-2.00;78.50;102019.44;5039300;28;20145;-84
2024/01/21 04:31:06;;;;;;;5.35;3.50;;;;;;;-1.95;79.82;102017.94;5072468;28;20121;-84
2024/01/21 04:33:31;;;;;;;8.70;4.00;;;;;;;-1.91;77.95;102007.69;5084346;28;20377;-84
2024/01/21 04:35:57;;;;;;;8.68;3.85;;;;;;;-1.88;78.17;101994.84;5061326;28;20079;-84
2024/01/21 04:38:23;;;;;;;5.40;3.53;;;;;;;-1.83;78.35;101991.66;5039179;28;20032;-84
2024/01/21 04:40:49;;;;;;;6.95;3.83;;;;;;;-1.76;77.80;101983.31;5045610;28;20058;-84
2024/01/21 04:43:15;;;;;;;5.90;3.83;;;;;;;-1.75;77.67;101960.88;5073619;28;20453;-84
2024/01/21 04:45:42;;;;;;;5.30;3.80;;;;;;;-1.69;78.28;101942.06;5067762;28;20147;-83
2024/01/21 04:48:07;;;;;;;6.93;3.67;;;;;;;-1.65;78.55;101931.91;5090158;28;20181;-84
2024/01/21 04:50:32;;;;;;;7.00;4.03;;;;;;;-1.60;80.16;101942.50;5065876;28;20059;-84
2024/01/21 04:52:58;;;;;;;8.23;4.00;;;;;;;-1.57;78.20;101940.91;5034334;28;20139;-84
2024/01/21 04:55:23;;;;;;;6.05;3.97;;;;;;;-1.55;78.29;101928.00;5063049;28;20052;-84
2024/01/21 04:57:49;;;;;;;8.02;3.78;;;;;;;-1.54;77.90;101925.44;5055690;28;20044;-84
2024/01/21 05:00:15;;;;;;;6.82;4.13;;;;;;;-1.53;78.36;101911.66;5041378;28;20082;-84
2024/01/21 05:02:40;;;;;;;7.05;4.00;;;;;;;-1.47;77.66;101917.94;5083181;28;20458;-83
2024/01/21 05:05:06;;;;;;;6.95;3.60;;;;;;;-1.37;77.56;101936.59;5055134;28;20064;-84
2024/01/21 05:07:31;;;;;;;5.75;3.47;;;;;;;-1.27;77.20;101926.63;5073528;28;20077;-84
2024/01/21 05:09:57;;;;;;;7.03;4.32;;;;;;;-1.22;76.54;101930.31;5076578;28;20037;-84
2024/01/21 05:12:23;;;;;;;7.97;4.35;;;;;;;-1.17;76.85;101923.59;5055115;28;20036;-83
2024/01/21 05:14:48;;;;;;;8.75;4.60;;;;;;;-1.13;76.19;101929.00;5054678;28;20068;-84
2024/01/21 05:17:13;;;;;;;7.18;4.20;;;;;;;-1.08;75.46;101930.09;5054106;28;20036;-83
2024/01/21 05:19:39;;;;;;;6.95;4.47;;;;;;;-0.94;74.31;101935.88;5065635;28;20573;-84
2024/01/21 05:22:04;;;;;;;7.95;4.30;;;;;;;-0.82;75.42;101930.28;5058820;28;20127;-84
2024/01/21 05:24:30;;;;;;;7.13;4.20;;;;;;;-0.81;73.07;101937.28;5046788;28;20040;-84
2024/01/21 05:26:56;;;;;;;7.40;4.40;;;;;;;-0.67;74.06;101930.03;5079007;28;20471;-84
2024/01/21 05:29:21;;;;;;;6.82;4.20;;;;;;;-0.67;74.19;101924.84;5070912;28;20127;-84
2024/01/21 05:31:47;;;;;;;6.22;3.72;;;;;;;-0.68;74.00;101916.16;5063640;28;20412;-84
2024/01/21 05:34:13;;;;;;;9.68;4.63;;;;;;;-0.64;72.53;101896.38;5058152;28;20375;-84
2024/01/21 05:36:38;;;;;;;9.85;4.82;;;;;;;-0.56;72.86;101905.38;5038319;28;20039;-84
2024/01/21 05:39:04;;;;;;;8.60;4.47;;;;;;;-0.47;74.04;101915.25;5074615;28;20032;-84
2024/01/21 05:41:29;;;;;;;8.30;4.57;;;;;;;-0.42;74.24;101905.94;5058606;28;20040;-83
2024/01/21 05:43:55;;;;;;;5.43;4.00;;;;;;;-0.40;72.19;101925.06;5054815;28;20033;-85
2024/01/21 05:46:21;;;;;;;10.27;4.95;;;;;;;-0.23;70.77;101913.63;5086648;28;20075;-84
2024/01/21 05:48:46;;;;;;;9.35;5.93;;;;;;;-0.27;71.69;101919.53;5050564;28;20432;-84
2024/01/21 05:51:11;;;;;;;8.85;4.82;;;;;;;-0.28;71.26;101906.47;5060492;28;20024;-84
2024/01/21 05:53:39;;;;;;;10.20;5.25;;;;;;;-0.24;72.37;101905.75;5058007;28;20533;-84
2024/01/21 05:56:05;;;;;;;8.52;4.28;;;;;;;-0.23;70.82;101903.19;5044195;28;20051;-83
2024/01/21 05:58:30;;;;;;;8.45;5.10;;;;;;;-0.10;69.76;101898.47;5074567;28;20395;-84
2024/01/21 06:00:56;;;;;;;8.48;5.00;;;;;;;-0.17;70.21;101886.97;5057917;28;20032;-83
2024/01/21 06:03:21;;;;;;;7.68;4.90;;;;;;;-0.14;70.33;101902.69;5057808;28;20106;-84
2024/01/21 06:05:47;;;;;;;10.18;4.32;;;;;;;-0.11;72.16;101888.91;5084542;28;20028;-83
2024/01/21 06:08:12;;;;;;;8.23;4.80;;;;;;;-0.22;70.15;101870.28;5075842;28;20429;-84
2024/01/21 06:10:38;;;;;;;9.60;4.43;;;;;;;-0.10;69.87;101880.25;5068320;28;20108;-83
2024/01/21 06:13:03;;;;;;;9.25;4.22;;;;;;;-0.06;70.21;101888.25;5049995;28;20394;-85
2024/01/21 06:15:29;;;;;;;8.52;5.25;;;;;;;-0.03;70.84;101890.06;5056312;28;20040;-84
2024/01/21 06:17:54;;;;;;;8.43;5.03;;;;;;;-0.05;70.12;101896.94;5064530;28;20093;-84
2024/01/21 06:20:20;;;;;;;7.57;4.07;;;;;;;0.00;68.88;101882.41;5074082;28;20058;-83
2024/01/21 06:22:45;;;;;;;9.18;4.13;;;;;;;0.15;68.63;101902.94;5074291;28;20036;-83
2024/01/21 06:25:11;;;;;;;8.50;5.07;;;;;;;0.09;68.07;101913.09;5037329;28;20223;-85
2024/01/21 06:27:37;;;;;;;7.72;4.68;;;;;;;0.11;68.60;101904.50;5059600;28;20118;-84
2024/01/21 06:30:13;;;;;;;7.85;4.70;;;;;;;0.10;70.38;101905.34;5050060;28;20559;-83
2024/01/21 06:32:39;;;;;;;7.78;4.82;;;;;;;0.03;69.13;101903.34;5082259;28;20036;-84
2024/01/21 06:35:05;;;;;;;9.13;5.45;;;;;;;0.18;68.30;101896.09;5062977;28;20487;-83
2024/01/21 06:37:31;;;;;;;8.73;4.65;;;;;;;0.13;68.08;101895.03;5053886;28;20094;-84
2024/01/21 06:39:56;;;;;;;7.03;4.45;;;;;;;0.28;67.81;101922.50;5046608;28;20020;-84
2024/01/21 06:42:22;;;;;;;8.10;4.78;;;;;;;0.19;68.00;101916.09;5053823;28;20330;-84
2024/01/21 06:44:47;;;;;;;11.23;5.25;;;;;;;0.28;67.26;101927.72;5053746;28;20480;-84
2024/01/21 06:47:13;;;;;;;9.25;5.22;;;;;;;0.20;67.57;101912.69;5084726;28;20052;-83
2024/01/21 06:49:38;;;;;;;8.95;5.93;;;;;;;0.24;67.91;101915.38;5023288;28;20059;-83
2024/01/21 06:52:07;;;;;;;8.73;5.28;;;;;;;0.27;66.56;101921.59;5071874;28;20364;-84
2024/01/21 06:54:33;;;;;;;9.25;5.47;;;;;;;0.30;66.45;101939.97;5037716;28;20040;-84
2024/01/21 06:56:59;;;;;;;10.98;5.07;;;;;;;0.45;65.13;101933.56;5071552;28;20428;-84
2024/01/21 06:59:25;;;;;;;7.65;5.07;;;;;;;0.29;65.24;101913.84;5068976;28;20141;-84
2024/01/21 07:01:52;;;;;;;7.22;4.70;;;;;;;0.40;66.06;101910.81;5053386;28;20041;-86
2024/01/21 07:04:21;;;;;;;8.05;5.32;;;;;;;0.53;64.35;101899.09;5043905;28;20376;-84
2024/01/21 07:06:46;;;;;;;8.68;5.05;;;;;;;0.40;65.64;101886.47;5053144;28;20068;-84
2024/01/21 07:09:12;;;;;;;8.98;5.18;;;;;;;0.43;65.10;101881.38;5039546;28;20048;-86
2024/01/21 07:11:42;;;;;;;8.57;5.72;;;;;;;0.38;65.14;101852.53;5062311;28;20044;-85
2024/01/21 07:14:07;;;;;;;7.35;4.63;;;;;;;0.44;65.73;101862.28;5053575;28;20028;-85
2024/01/21 07:16:33;;;;;;;7.93;4.95;;;;;;;0.50;65.03;101846.88;5081215;28;20048;-85
2024/01/21 07:18:58;;;;;;;6.72;4.65;;;;;;;0.42;65.44;101851.81;5074410;28;20035;-84
2024/01/21 07:21:24;;;;;;;6.85;4.15;;;;;;;0.47;64.49;101857.22;5069668;28;20050;-84
2024/01/21 07:23:49;;;;;;;7.68;4.55;;;;;;;0.42;66.79;101851.81;5054311;28;20376;-85
2024/01/21 07:26:15;;;;;;;8.30;5.15;;;;;;;0.40;65.35;101852.59;5065737;28;20031;-85
2024/01/21 07:28:40;;;;;;;8.57;4.57;;;;;;;0.46;65.20;101859.75;5086970;28;20036;-86
2024/01/21 07:31:06;;;;;;;5.55;3.90;;;;;;;0.51;64.61;101858.19;5067305;28;20040;-85
2024/01/21 07:33:31;;;;;;;8.85;5.00;;;;;;;0.46;64.66;101867.56;5056769;28;20032;-83
2024/01/21 07:35:58;;;;;;;6.80;3.90;;;;;;;0.54;64.96;101869.59;5062638;28;20039;-86
2024/01/21 07:38:23;;;;;;;6.72;4.28;;;;;;;0.53;63.13;101852.19;5059713;28;20071;-85
2024/01/21 07:40:49;;;;;;;9.15;5.28;;;;;;;0.57;62.92;101861.91;5062426;28;20471;-86
2024/01/21 07:43:16;;;;;;;9.15;4.90;;;;;;;0.46;64.52;101846.72;5034978;28;20051;-87
2024/01/21 07:45:41;;;;;;;8.38;4.65;;;;;;;0.51;63.64;101852.97;5072557;28;20043;-84
2024/01/21 07:48:07;;;;;;;6.80;4.10;;;;;;;0.50;63.31;101885.09;5074763;28;20048;-85
2024/01/21 07:50:33;;;;;;;6.55;4.57;;;;;;;0.47;63.45;101890.16;5080671;28;20440;-85
2024/01/21 07:52:59;;;;;;;5.93;4.13;;;;;;;0.42;63.83;101896.13;5057928;28;20391;-84
2024/01/21 07:55:24;;;;;;;9.43;5.03;;;;;;;0.47;63.79;101909.31;5051818;28;20033;-85
2024/01/21 07:57:50;;;;;;;7.07;4.35;;;;;;;0.52;63.97;101899.03;5085926;28;20035;-85
2024/01/21 08:00:15;;;;;;;6.72;4.40;;;;;;;0.45;62.58;101926.63;5035757;28;20486;-85
2024/01/21 08:02:41;;;;;;;5.60;4.20;;;;;;;0.55;63.75;101930.44;5057577;28;20044;-85
2024/01/21 08:05:08;;;;;;;5.82;3.92;;;;;;;0.57;62.24;101929.69;5089994;28;20147;-85
2024/01/21 08:07:34;;;;;;;6.75;4.47;;;;;;;0.46;63.30;101949.22;5059868;28;20082;-85
2024/01/21 08:10:00;;;;;;;10.43;5.07;;;;;;;0.56;62.83;101959.16;5071886;28;20063;-85
2024/01/21 08:12:25;;;;;;;6.50;4.10;;;;;;;0.58;63.04;101969.66;5043257;28;20044;-85
2024/01/21 08:14:51;;;;;;;7.13;4.28;;;;;;;0.52;63.03;101965.13;5057545;28;20115;-86
2024/01/21 08:17:16;;;;;;;7.63;3.63;;;;;;;0.66;63.76;101964.72;5060297;28;20544;-84
2024/01/21 08:19:42;;;;;;;9.40;4.90;;;;;;;0.70;63.38;101970.09;5059543;28;20032;-85
2024/01/21 08:22:10;;;;;;;7.82;4.60;;;;;;;0.79;63.08;101951.28;5064416;28;20047;-85
2024/01/21 08:24:36;;;;;;;5.18;3.78;;;;;;;0.90;62.51;101942.13;5080485;28;20040;-86
2024/01/21 08:27:02;;;;;;;7.22;4.10;;;;;;;0.88;63.60;101943.78;5081107;28;20047;-83
2024/01/21 08:29:27;;;;;;;7.85;3.70;;;;;;;0.85;63.18;101947.19;5077392;28;20046;-84
2024/01/21 08:31:56;;;;;;;7.20;4.38;;;;;;;0.88;63.75;101961.16;5086305;28;20115;-85
2024/01/21 08:34:24;;;;;;;7.70;4.15;;;;;;;0.81;64.49;101932.25;5064083;28;20028;-84
2024/01/21 08:36:50;;;;;;;10.23;3.58;;;;;;;0.86;64.37;101953.28;5082363;28;20073;-85
2024/01/21 08:39:16;;;;;;;7.90;4.70;;;;;;;0.91;64.20;101945.63;5076169;28;20028;-85
2024/01/21 08:41:41;;;;;;;7.72;5.03;;;;;;;0.89;64.35;101939.47;5065072;28;20369;-85
2024/01/21 08:44:07;;;;;;;5.60;3.92;;;;;;;1.21;64.14;101951.00;5057181;28;20064;-87
2024/01/21 08:46:33;;;;;;;5.38;3.85;;;;;;;1.05;64.85;101940.06;5070398;28;20044;-83
2024/01/21 08:48:58;;;;;;;7.00;4.28;;;;;;;1.04;65.54;101942.63;5051167;28;20143;-86
2024/01/21 08:51:24;;;;;;;6.93;4.18;;;;;;;1.14;66.28;101943.81;5071167;28;20110;-84
2024/01/21 08:53:56;;;;;;;7.13;4.55;;;;;;;1.26;65.58;101950.34;5064785;28;20031;-84
2024/01/21 08:56:26;;;;;;;8.88;4.55;;;;;;;1.25;66.66;101943.34;5049174;28;20175;-84
2024/01/21 08:58:52;;;;;;;7.85;4.85;;;;;;;1.32;66.79;101946.19;5071692;28;20035;-85
2024/01/21 09:01:21;;;;;;;8.18;4.35;;;;;;;1.35;67.50;101935.84;5063853;28;20032;-84
2024/01/21 09:03:47;;;;;;;7.53;4.68;;;;;;;1.35;67.57;101938.44;5066386;28;20081;-85
2024/01/21 09:06:13;;;;;;;4.10;2.97;;;;;;;1.33;68.88;101925.34;5040634;28;20033;-84
2024/01/21 09:08:38;;;;;;;7.00;4.28;;;;;;;1.51;68.73;101948.56;5066355;28;20494;-85
2024/01/21 09:11:05;;;;;;;8.45;5.13;;;;;;;1.52;69.00;101954.66;5069982;28;20043;-84
2024/01/21 09:13:30;;;;;;;6.85;4.78;;;;;;;1.40;71.18;101953.41;5057872;28;20119;-84
2024/01/21 09:15:56;;;;;;;7.97;4.70;;;;;;;1.42;71.47;101966.53;5053530;28;20132;-85
2024/01/21 09:18:22;;;;;;;6.30;4.38;;;;;;;1.54;72.13;101969.53;5066227;28;20389;-86
2024/01/21 09:20:48;;;;;;;6.25;3.97;;;;;;;1.57;72.98;101990.53;5062622;28;20033;-85
2024/01/21 09:23:13;;;;;;;5.60;4.13;;;;;;;1.54;74.41;101986.94;5055675;28;20472;-85
2024/01/21 09:25:39;;;;;;;7.50;3.80;;;;;;;1.56;74.44;101991.38;5019021;28;20404;-85
2024/01/21 09:28:05;;;;;;;6.63;4.07;;;;;;;1.63;75.25;101987.22;5051514;28;20036;-84
2024/01/21 09:30:31;;;;;;;7.47;4.43;;;;;;;1.59;75.75;101975.81;5058603;28;20107;-83
2024/01/21 09:32:57;;;;;;;7.78;5.22;;;;;;;1.77;75.34;101995.53;5070795;28;20074;-85
2024/01/21 09:35:23;;;;;;;8.35;4.90;;;;;;;1.71;76.73;101997.09;5069935;28;20056;-85
2024/01/21 09:37:48;;;;;;;6.50;4.10;;;;;;;1.72;76.85;101988.41;5068713;28;20052;-84
2024/01/21 09:40:14;;;;;;;7.85;4.72;;;;;;;1.59;78.53;101993.19;5071392;28;20043;-85
2024/01/21 09:42:40;;;;;;;7.85;4.90;;;;;;;1.67;78.76;102002.16;5066097;28;20040;-84
2024/01/21 09:45:09;;;;;;;6.68;4.50;;;;;;;1.72;79.09;101998.84;5072224;28;20036;-85
2024/01/21 09:47:37;;;;;;;6.85;4.45;;;;;;;1.67;80.11;101996.94;5054023;28;20079;-85
2024/01/21 09:50:03;;;;;;;8.70;4.15;;;;;;;1.75;79.20;102007.63;5046596;28;20070;-86
2024/01/21 09:52:29;;;;;;;8.95;4.05;;;;;;;1.68;81.00;102003.94;5064035;28;20128;-85
2024/01/21 09:54:55;;;;;;;7.25;4.57;;;;;;;1.62;83.07;102022.00;5045006;28;20127;-85
2024/01/21 09:57:21;;;;;;;8.70;4.40;;;;;;;1.56;84.32;102007.03;5073142;28;20089;-85
2024/01/21 09:59:48;;;;;;;7.97;4.28;;;;;;;1.60;85.71;101997.56;5059786;28;20063;-85
2024/01/21 10:02:18;;;;;;;5.28;3.78;;;;;;;1.85;84.78;101994.03;5067099;28;20064;-86
2024/01/21 10:04:44;;;;;;;7.15;4.72;;;;;;;1.75;86.74;101989.34;5070852;28;20052;-86
2024/01/21 10:07:11;;;;;;;7.90;4.95;;;;;;;1.65;87.74;101988.16;5066867;28;20088;-85
2024/01/21 10:09:37;;;;;;;7.75;4.90;;;;;;;1.74;87.89;101995.44;5063569;28;20032;-84
2024/01/21 10:12:03;;;;;;;5.30;3.70;;;;;;;1.78;88.10;101990.38;5037388;28;20500;-85
2024/01/21 10:14:29;;;;;;;7.63;5.13;;;;;;;1.89;88.61;101980.25;5061411;28;20040;-85
2024/01/21 10:16:58;;;;;;;6.00;3.78;;;;;;;1.87;89.52;101993.25;5047947;28;20032;-85
2024/01/21 10:19:35;;;;;;;8.25;4.60;;;;;;;1.85;90.23;101994.91;5052504;28;20503;-85
2024/01/21 10:22:13;;;;;;;6.80;4.50;;;;;;;2.01;89.74;101974.53;5052250;28;20300;-85
2024/01/21 10:24:40;;;;;;;5.75;3.55;;;;;;;1.94;91.64;101971.72;5068790;28;20038;-85
2024/01/21 10:27:07;;;;;;;8.10;4.65;;;;;;;2.02;91.17;101952.78;5038226;28;20036;-85
2024/01/21 10:29:38;;;;;;;6.88;4.55;;;;;;;2.10;91.26;101952.19;5064725;28;20032;-84
2024/01/21 10:32:05;;;;;;;6.60;4.50;;;;;;;2.06;92.72;101954.66;5069567;28;20028;-85
2024/01/21 10:34:30;;;;;;;7.03;5.30;;;;;;;2.06;93.60;101950.31;5053408;28;20086;-85
2024/01/21 10:37:02;;;;;;;8.73;4.90;;;;;;;2.07;93.51;101948.56;5040148;28;20036;-85
2024/01/21 10:39:30;;;;;;;8.35;4.82;;;;;;;2.10;93.87;101951.28;5063504;28;20028;-85
2024/01/21 10:41:56;;;;;;;9.60;5.30;;;;;;;2.12;93.51;101939.16;5052501;28;20480;-85
2024/01/21 10:44:23;;;;;;;8.05;4.63;;;;;;;2.12;93.68;101944.38;5062770;28;20090;-85
2024/01/21 10:46:50;;;;;;;6.18;3.92;;;;;;;2.26;92.10;101937.84;5047440;28;20435;-86
2024/01/21 10:49:16;;;;;;;10.30;4.80;;;;;;;2.19;93.35;101940.22;5050594;28;20075;-86
2024/01/21 10:51:42;;;;;;;10.68;5.00;;;;;;;2.25;92.52;101929.94;5059417;28;20410;-85
2024/01/21 10:54:08;;;;;;;8.90;4.35;;;;;;;2.22;92.88;101933.34;5054452;28;20029;-86
2024/01/21 10:56:34;;;;;;;7.15;5.10;;;;;;;2.23;92.89;101926.44;5037452;28;20048;-87
2024/01/21 10:59:00;;;;;;;8.82;5.10;;;;;;;2.15;93.21;101908.78;5020408;28;20368;-86
2024/01/21 11:01:26;;;;;;;9.48;5.20;;;;;;;2.28;93.21;101910.03;5064629;28;20043;-87
2024/01/21 11:04:12;;;;;;;7.60;4.50;;;;;;;2.41;92.10;101921.72;5051614;28;20040;-86
2024/01/21 11:06:42;;;;;;;9.00;4.93;;;;;;;2.35;91.87;101924.19;5047203;28;20106;-87
2024/01/21 11:09:08;;;;;;;6.65;4.63;;;;;;;2.46;91.26;101927.97;5053820;28;20041;-89
2024/01/21 11:11:46;;;;;;;9.05;5.63;;;;;;;2.42;91.41;101931.31;5063561;28;20480;-87
2024/01/21 11:14:35;;;;;;;9.52;5.38;;;;;;;2.59;90.08;101950.13;5067567;28;20029;-87
2024/01/21 11:17:06;;;;;;;6.28;4.70;;;;;;;2.49;89.75;101935.00;5070700;28;20040;-87
2024/01/21 11:19:47;;;;;;;8.40;5.00;;;;;;;2.55;90.05;101945.66;5065314;28;20033;-89
2024/01/21 11:22:14;;;;;;;7.95;4.85;;;;;;;2.55;89.43;101938.69;5052168;28;20033;-87